Terminal Aerodrome Forecast
Issued by NWS

Home | Current Version | Previous Version | Graphics & Text | Print | Product List | Glossary On
Versions: 1 2 3 4 5 6 7 8 9 10 11 12 13 14
000
FTUS43 KBIS 232320
TAFDIK
TAF
KDIK 232320Z 2400/2424 10008KT P6SM SKC
     FM240700 16012KT P6SM SCT110 BKN250
     FM242200 20012KT P6SM FEW200=

USA.gov is the U.S. government's official web portal to all federal, state and local government web resources and services.